createdAt,value
2022-12-31T00:00:22.740Z,101433.26
2022-12-31T00:01:26.913Z,101435.80
2022-12-31T00:02:30.109Z,101426.98
2022-12-31T00:03:34.540Z,101422.39
2022-12-31T00:04:37.651Z,101421.55
2022-12-31T00:05:40.716Z,101423.41
2022-12-31T00:06:44.145Z,101410.03
2022-12-31T00:07:47.322Z,101423.61
2022-12-31T00:08:52.023Z,101414.62
2022-12-31T00:09:54.964Z,101420.05
2022-12-31T00:10:58.027Z,101414.78
2022-12-31T00:12:01.059Z,101416.66
2022-12-31T00:13:04.200Z,101422.25
2022-12-31T00:14:07.452Z,101428.70
2022-12-31T00:15:10.811Z,101430.40
2022-12-31T00:16:16.577Z,101434.13
2022-12-31T00:17:19.573Z,101434.13
2022-12-31T00:18:22.660Z,101431.42
2022-12-31T00:19:25.840Z,101423.27
2022-12-31T00:20:29.289Z,101422.25
2022-12-31T00:21:33.953Z,101418.89
2022-12-31T00:22:37.228Z,101418.89
2022-12-31T00:23:40.547Z,101428.05
2022-12-31T00:24:43.650Z,101430.60
2022-12-31T00:25:46.863Z,101428.91
2022-12-31T00:26:50.087Z,101431.62
2022-12-31T00:27:54.057Z,101436.03
2022-12-31T00:28:58.438Z,101439.56
2022-12-31T00:30:04.728Z,101439.39
2022-12-31T00:32:19.736Z,101430.00
2022-12-31T00:33:22.870Z,101441.27
2022-12-31T00:34:26.046Z,101443.98
2022-12-31T00:35:29.188Z,101436.68
2022-12-31T00:36:37.422Z,101432.09
2022-12-31T00:37:40.570Z,101442.80
2022-12-31T00:38:45.753Z,101430.23
2022-12-31T00:39:48.799Z,101441.09
2022-12-31T00:40:51.950Z,101426.66
2022-12-31T00:41:55.137Z,101429.38
2022-12-31T00:42:58.271Z,101426.84
2022-12-31T00:44:01.601Z,101425.98
2022-12-31T00:45:05.239Z,101417.02
2022-12-31T00:46:09.430Z,101415.49
2022-12-31T00:47:12.549Z,101414.48
2022-12-31T00:48:15.683Z,101417.36
2022-12-31T00:49:18.968Z,101420.24
2022-12-31T00:50:22.007Z,101413.15
2022-12-31T00:51:26.861Z,101410.43
2022-12-31T00:52:30.041Z,101405.00
2022-12-31T00:53:33.657Z,101408.73
2022-12-31T00:54:36.873Z,101403.47
2022-12-31T00:55:40.109Z,101405.34
2022-12-31T00:56:43.321Z,101404.66
2022-12-31T00:57:46.497Z,101407.74
2022-12-31T00:58:50.602Z,101405.39
2022-12-31T00:59:53.688Z,101400.30
2022-12-31T01:00:57.410Z,101397.75
2022-12-31T01:02:00.754Z,101401.69
2022-12-31T01:03:04.446Z,101393.88
2022-12-31T01:04:10.999Z,101393.06
2022-12-31T01:05:14.297Z,101395.26
2022-12-31T01:06:18.344Z,101408.18
2022-12-31T01:07:21.411Z,101397.66
2022-12-31T01:08:24.524Z,101395.11
2022-12-31T01:09:27.604Z,101392.59
2022-12-31T01:10:49.114Z,101390.90
2022-12-31T01:11:52.190Z,101397.34
2022-12-31T01:12:55.374Z,101396.86
2022-12-31T01:14:13.164Z,101401.60
2022-12-31T01:15:16.287Z,101402.78
2022-12-31T01:16:22.650Z,101409.42
2022-12-31T01:17:25.758Z,101405.17
2022-12-31T01:18:28.916Z,101394.33
2022-12-31T01:19:32.038Z,101390.95
2022-12-31T01:20:40.139Z,101391.97
2022-12-31T01:21:45.196Z,101387.56
2022-12-31T01:22:48.290Z,101377.72
2022-12-31T01:23:51.475Z,101383.35
2022-12-31T01:24:54.821Z,101368.94
2022-12-31T01:26:02.853Z,101375.38
2022-12-31T01:27:06.106Z,101377.41
2022-12-31T01:28:09.736Z,101376.75
2022-12-31T01:29:14.035Z,101369.80
2022-12-31T01:30:17.409Z,101377.25
2022-12-31T01:31:22.254Z,101380.16
2022-12-31T01:32:26.219Z,101374.90
2022-12-31T01:33:29.405Z,101385.91
2022-12-31T01:34:32.593Z,101378.98
2022-12-31T01:35:36.058Z,101379.16
2022-12-31T01:36:40.022Z,101380.16
2022-12-31T01:37:43.217Z,101389.52
2022-12-31T01:38:46.411Z,101387.81
2022-12-31T01:39:49.687Z,101397.98
2022-12-31T01:40:53.068Z,101394.41
2022-12-31T01:41:56.248Z,101397.32
2022-12-31T01:42:59.428Z,101396.47
2022-12-31T01:44:14.256Z,101408.33
2022-12-31T01:45:17.456Z,101401.05
2022-12-31T01:46:30.041Z,101395.63
2022-12-31T01:47:36.833Z,101396.47
2022-12-31T01:48:40.267Z,101390.85
2022-12-31T01:49:55.944Z,101388.99
2022-12-31T01:50:59.488Z,101388.99
2022-12-31T01:52:21.040Z,101404.61
2022-12-31T01:53:24.696Z,101413.59
2022-12-31T01:54:31.733Z,101418.33
2022-12-31T01:55:38.411Z,101421.04
2022-12-31T01:56:44.891Z,101430.03
2022-12-31T01:57:51.554Z,101426.30
2022-12-31T01:58:56.825Z,101428.81
2022-12-31T02:00:01.386Z,101424.93
2022-12-31T02:01:06.740Z,101423.07
2022-12-31T02:02:10.086Z,101415.78
2022-12-31T02:03:14.110Z,101421.02
2022-12-31T02:04:17.552Z,101419.15
2022-12-31T02:05:33.297Z,101418.13
2022-12-31T02:06:40.052Z,101417.97
2022-12-31T02:07:44.244Z,101418.82
2022-12-31T02:08:47.946Z,101426.96
2022-12-31T02:09:51.890Z,101417.13
2022-12-31T02:10:54.944Z,101424.41
2022-12-31T02:11:58.104Z,101424.41
2022-12-31T02:13:01.542Z,101419.15
2022-12-31T02:14:11.251Z,101429.15
2022-12-31T02:15:15.591Z,101429.51
2022-12-31T02:16:25.590Z,101425.94
2022-12-31T02:17:44.054Z,101432.38
2022-12-31T02:19:09.819Z,101432.58
2022-12-31T02:20:26.151Z,101420.88
2022-12-31T02:21:41.842Z,101424.60
2022-12-31T02:22:57.694Z,101432.05
2022-12-31T02:24:25.453Z,101436.82
2022-12-31T02:25:51.696Z,101428.84
2022-12-31T02:27:10.279Z,101431.03
2022-12-31T02:28:36.729Z,101432.40
2022-12-31T02:30:13.427Z,101427.50
2022-12-31T02:31:35.421Z,101440.72
2022-12-31T02:33:02.655Z,101445.64
2022-12-31T02:34:21.090Z,101434.27
2022-12-31T02:36:42.155Z,101442.93
2022-12-31T02:37:48.579Z,101441.56
2022-12-31T02:38:52.333Z,101446.14
2022-12-31T02:39:56.190Z,101448.84
2022-12-31T02:41:00.587Z,101453.58
2022-12-31T02:42:03.850Z,101449.86
2022-12-31T02:43:07.284Z,101451.72
2022-12-31T02:44:29.026Z,101452.72
2022-12-31T02:45:35.734Z,101458.14
2022-12-31T02:46:42.378Z,101453.08
2022-12-31T02:47:52.055Z,101449.67
2022-12-31T02:49:13.812Z,101456.95
2022-12-31T02:50:35.648Z,101450.87
2022-12-31T02:51:57.277Z,101452.89
2022-12-31T02:53:13.057Z,101450.53
2022-12-31T02:54:22.335Z,101452.55
2022-12-31T02:55:46.871Z,101455.61
2022-12-31T02:57:13.193Z,101448.49
2022-12-31T02:58:27.403Z,101455.92
2022-12-31T02:59:52.457Z,101456.94
2022-12-31T03:01:16.067Z,101456.94
2022-12-31T03:02:22.898Z,101451.52
2022-12-31T03:03:27.259Z,101458.64
2022-12-31T03:04:33.084Z,101454.22
2022-12-31T03:05:42.580Z,101452.37
2022-12-31T03:06:46.361Z,101438.82
2022-12-31T03:07:49.533Z,101438.82
2022-12-31T03:09:06.306Z,101441.38
2022-12-31T03:11:39.527Z,101442.55
2022-12-31T03:12:47.102Z,101451.86
2022-12-31T03:13:50.325Z,101442.72
2022-12-31T03:14:53.673Z,101452.55
2022-12-31T03:15:56.918Z,101447.13
2022-12-31T03:16:59.962Z,101437.14
2022-12-31T03:18:06.574Z,101449.69
2022-12-31T03:19:28.146Z,101449.49
2022-12-31T03:20:58.547Z,101445.77
2022-12-31T03:22:20.156Z,101455.60
2022-12-31T03:23:29.468Z,101458.31
2022-12-31T03:24:51.026Z,101457.62
2022-12-31T03:25:55.764Z,101463.04
2022-12-31T03:26:58.820Z,101450.53
2022-12-31T03:28:03.854Z,101448.67
2022-12-31T03:29:06.939Z,101443.06
2022-12-31T03:30:12.034Z,101441.89
2022-12-31T03:31:15.983Z,101439.84
2022-12-31T03:32:19.152Z,101438.67
2022-12-31T03:33:23.506Z,101442.08
2022-12-31T03:34:26.753Z,101435.30
2022-12-31T03:35:31.501Z,101443.08
2022-12-31T03:36:34.695Z,101442.75
2022-12-31T03:37:39.467Z,101443.25
2022-12-31T03:38:42.918Z,101439.53
2022-12-31T03:39:45.999Z,101444.59
2022-12-31T03:40:51.576Z,101442.73
2022-12-31T03:41:54.756Z,101442.58
2022-12-31T03:42:58.105Z,101440.72
2022-12-31T03:44:01.333Z,101440.55
2022-12-31T03:45:05.140Z,101440.36
2022-12-31T03:46:08.670Z,101435.98
2022-12-31T03:47:11.795Z,101436.99
2022-12-31T03:48:14.793Z,101438.86
2022-12-31T03:49:17.908Z,101429.87
2022-12-31T03:50:20.949Z,101435.30
2022-12-31T03:51:24.001Z,101437.16
2022-12-31T03:52:27.184Z,101434.44
2022-12-31T03:53:30.214Z,101424.45
2022-12-31T03:54:33.349Z,101422.75
2022-12-31T03:55:36.497Z,101419.03
2022-12-31T03:56:39.727Z,101416.31
2022-12-31T03:57:42.787Z,101416.16
2022-12-31T03:58:46.133Z,101418.02
2022-12-31T03:59:49.204Z,101417.83
2022-12-31T04:00:52.334Z,101433.27
2022-12-31T04:01:55.443Z,101432.42
2022-12-31T04:02:58.765Z,101433.44
2022-12-31T04:04:02.166Z,101436.30
2022-12-31T04:05:06.160Z,101441.39
2022-12-31T04:06:09.621Z,101441.39
2022-12-31T04:07:12.983Z,101436.32
2022-12-31T04:08:16.176Z,101435.63
2022-12-31T04:09:19.428Z,101435.80
2022-12-31T04:10:22.856Z,101434.09
2022-12-31T04:11:25.915Z,101432.23
2022-12-31T04:12:28.972Z,101428.67
2022-12-31T04:13:32.033Z,101427.66
2022-12-31T04:14:35.308Z,101431.06
2022-12-31T04:15:38.454Z,101421.07
2022-12-31T04:16:41.776Z,101422.77
2022-12-31T04:17:45.193Z,101417.34
2022-12-31T04:18:48.320Z,101414.64
2022-12-31T04:19:51.739Z,101412.75
2022-12-31T04:20:54.900Z,101412.75
2022-12-31T04:21:58.054Z,101413.79
2022-12-31T04:23:01.341Z,101412.09
2022-12-31T04:24:04.933Z,101405.98
2022-12-31T04:25:11.499Z,101404.48
2022-12-31T04:26:15.753Z,101410.22
2022-12-31T04:27:18.935Z,101397.87
2022-12-31T04:28:22.304Z,101401.75
2022-12-31T04:29:25.641Z,101406.67
2022-12-31T04:30:28.801Z,101412.41
2022-12-31T04:31:32.190Z,101427.16
2022-12-31T04:32:35.299Z,101433.75
2022-12-31T04:33:38.494Z,101453.91
2022-12-31T04:34:41.802Z,101456.94
2022-12-31T04:35:44.901Z,101457.44
2022-12-31T04:36:48.101Z,101473.00
2022-12-31T04:37:51.313Z,101493.00
2022-12-31T04:38:55.249Z,101506.70
2022-12-31T04:40:03.694Z,101495.17
2022-12-31T04:41:19.214Z,101495.17
2022-12-31T04:42:22.533Z,101502.98
2022-12-31T04:43:25.824Z,101517.53
2022-12-31T04:44:28.829Z,101517.38
2022-12-31T04:45:31.986Z,101516.34
2022-12-31T04:46:35.276Z,101512.63
2022-12-31T04:47:38.237Z,101512.47
2022-12-31T04:48:41.222Z,101510.61
2022-12-31T04:49:44.260Z,101514.33
2022-12-31T04:50:47.320Z,101512.63
2022-12-31T04:51:50.457Z,101505.50
2022-12-31T04:52:53.742Z,101506.70
2022-12-31T04:53:57.418Z,101510.57
2022-12-31T04:55:00.681Z,101505.50
2022-12-31T04:56:04.733Z,101501.24
2022-12-31T04:57:07.806Z,101502.44
2022-12-31T04:58:10.854Z,101512.58
2022-12-31T04:59:13.900Z,101505.64
2022-12-31T05:00:17.282Z,101515.78
2022-12-31T05:01:21.451Z,101510.52
2022-12-31T05:02:24.655Z,101502.73
2022-12-31T05:03:27.971Z,101509.31
2022-12-31T05:04:31.158Z,101501.37
2022-12-31T05:05:37.775Z,101496.27
2022-12-31T05:06:40.834Z,101509.14
2022-12-31T05:07:44.346Z,101513.86
2022-12-31T05:08:48.179Z,101521.47
2022-12-31T05:09:51.435Z,101525.33
2022-12-31T05:10:54.925Z,101534.61
2022-12-31T05:11:58.767Z,101532.09
2022-12-31T05:13:02.113Z,101521.56
2022-12-31T05:14:05.079Z,101528.17
2022-12-31T05:15:08.776Z,101536.56
2022-12-31T05:16:12.222Z,101542.16
2022-12-31T05:17:15.330Z,101545.87
2022-12-31T05:18:18.681Z,101536.05
2022-12-31T05:19:21.629Z,101549.42
2022-12-31T05:20:24.566Z,101545.02
2022-12-31T05:21:27.741Z,101548.58
2022-12-31T05:22:30.795Z,101549.42
2022-12-31T05:23:34.131Z,101547.57
2022-12-31T05:24:37.296Z,101550.28
2022-12-31T05:25:42.810Z,101550.09
2022-12-31T05:26:45.926Z,101550.95
2022-12-31T05:27:49.024Z,101547.39
2022-12-31T05:28:52.284Z,101547.27
2022-12-31T05:29:55.508Z,101561.50
2022-12-31T05:31:00.015Z,101562.50
2022-12-31T05:32:03.236Z,101561.50
2022-12-31T05:33:06.417Z,101563.17
2022-12-31T05:34:09.602Z,101569.44
2022-12-31T05:35:12.880Z,101570.29
2022-12-31T05:36:16.146Z,101566.58
2022-12-31T05:37:19.209Z,101574.55
2022-12-31T05:38:22.377Z,101568.28
2022-12-31T05:39:25.552Z,101566.58
2022-12-31T05:40:28.664Z,101570.14
2022-12-31T05:41:31.848Z,101573.84
2022-12-31T05:42:35.309Z,101574.70
2022-12-31T05:43:38.475Z,101577.41
2022-12-31T05:44:41.676Z,101575.70
2022-12-31T05:45:44.945Z,101562.87
2022-12-31T05:46:48.058Z,101567.28
2022-12-31T05:47:52.356Z,101562.87
2022-12-31T05:48:55.656Z,101565.73
2022-12-31T05:49:58.861Z,101568.77
2022-12-31T05:51:02.943Z,101558.09
2022-12-31T05:52:06.556Z,101563.62
2022-12-31T05:53:09.749Z,101568.37
2022-12-31T05:54:13.030Z,101574.94
2022-12-31T05:55:16.173Z,101570.52
2022-12-31T05:56:20.163Z,101569.00
2022-12-31T05:57:23.353Z,101566.45
2022-12-31T05:58:27.849Z,101576.42
2022-12-31T05:59:30.954Z,101571.01
2022-12-31T06:00:34.128Z,101568.45
2022-12-31T06:01:37.389Z,101565.94
2022-12-31T06:02:40.975Z,101566.78
2022-12-31T06:03:44.378Z,101577.61
2022-12-31T06:04:47.879Z,101564.23
2022-12-31T06:05:51.170Z,101565.08
2022-12-31T06:06:55.198Z,101570.49
2022-12-31T06:07:58.718Z,101569.64
2022-12-31T06:09:02.097Z,101575.91
2022-12-31T06:10:07.412Z,101579.61
2022-12-31T06:11:10.521Z,101570.80
2022-12-31T06:12:13.801Z,101569.13
2022-12-31T06:13:16.901Z,101573.83
2022-12-31T06:14:20.095Z,101576.53
2022-12-31T06:15:23.234Z,101579.94
2022-12-31T06:16:26.763Z,101586.17
2022-12-31T06:17:31.890Z,101596.17
2022-12-31T06:18:34.965Z,101588.06
2022-12-31T06:19:39.024Z,101597.00
2022-12-31T06:20:41.944Z,101592.44
2022-12-31T06:21:45.053Z,101593.30
2022-12-31T06:22:48.219Z,101602.96
2022-12-31T06:23:51.326Z,101607.19
2022-12-31T06:24:54.511Z,101607.05
2022-12-31T06:26:03.149Z,101607.74
2022-12-31T06:27:06.325Z,101621.27
2022-12-31T06:28:12.183Z,101607.74
2022-12-31T06:29:14.611Z,101611.30
2022-12-31T06:30:17.842Z,101609.41
2022-12-31T06:31:21.068Z,101611.12
2022-12-31T06:32:24.187Z,101598.59
2022-12-31T06:33:27.810Z,101608.74
2022-12-31T06:34:30.953Z,101610.75
2022-12-31T06:35:34.028Z,101616.49
2022-12-31T06:36:37.185Z,101612.23
2022-12-31T06:37:40.208Z,101622.20
2022-12-31T06:38:43.943Z,101619.83
2022-12-31T06:39:47.181Z,101625.53
2022-12-31T06:40:50.300Z,101627.56
2022-12-31T06:41:53.696Z,101639.39
2022-12-31T06:43:00.106Z,101633.27
2022-12-31T06:44:03.039Z,101645.27
2022-12-31T06:45:06.918Z,101641.02
2022-12-31T06:46:12.394Z,101644.89
2022-12-31T06:47:15.649Z,101641.48
2022-12-31T06:48:18.744Z,101644.52
2022-12-31T06:49:21.935Z,101659.89
2022-12-31T06:50:25.231Z,101650.07
2022-12-31T06:51:29.792Z,101658.33
2022-12-31T06:52:33.123Z,101655.77
2022-12-31T06:53:36.168Z,101666.45
2022-12-31T06:54:39.798Z,101672.70
2022-12-31T06:55:43.402Z,101673.56
2022-12-31T06:56:46.891Z,101675.41
2022-12-31T06:57:50.313Z,101671.00
2022-12-31T06:58:53.963Z,101662.89
2022-12-31T06:59:57.585Z,101667.30
2022-12-31T07:01:13.169Z,101671.70
2022-12-31T07:02:53.253Z,101669.86
2022-12-31T07:04:31.906Z,101674.27
2022-12-31T07:05:47.828Z,101678.83
2022-12-31T07:08:17.418Z,101688.00
2022-12-31T07:09:33.127Z,101679.30
2022-12-31T07:10:42.954Z,101685.70
2022-12-31T07:11:52.211Z,101684.28
2022-12-31T07:13:19.814Z,101689.02
2022-12-31T07:14:29.216Z,101698.13
2022-12-31T07:15:48.153Z,101692.58
2022-12-31T07:17:23.788Z,101692.40
2022-12-31T07:18:39.541Z,101698.37
2022-12-31T07:20:04.491Z,101698.90
2022-12-31T07:21:13.072Z,101703.31
2022-12-31T07:22:16.899Z,101700.47
2022-12-31T07:23:20.591Z,101701.84
2022-12-31T07:24:24.046Z,101695.30
2022-12-31T07:25:27.598Z,101701.23
2022-12-31T07:26:57.063Z,101698.20
2022-12-31T07:28:06.874Z,101705.02
2022-12-31T07:31:01.945Z,101708.88
2022-12-31T07:32:20.164Z,101710.11
2022-12-31T07:35:34.735Z,101712.20
2022-12-31T07:36:46.488Z,101713.44
2022-12-31T07:39:41.178Z,101718.08
2022-12-31T07:41:07.311Z,101726.43
2022-12-31T07:42:18.146Z,101725.58
2022-12-31T07:43:45.337Z,101725.43
2022-12-31T07:45:03.982Z,101723.64
2022-12-31T07:46:27.683Z,101723.64
2022-12-31T07:47:31.253Z,101716.28
2022-12-31T07:48:34.641Z,101716.28
2022-12-31T07:49:40.359Z,101730.20
2022-12-31T07:50:43.966Z,101729.05
2022-12-31T07:51:47.440Z,101728.61
2022-12-31T07:52:50.636Z,101735.58
2022-12-31T07:53:53.730Z,101738.81
2022-12-31T07:54:56.776Z,101742.22
2022-12-31T07:56:02.179Z,101732.92
2022-12-31T07:57:05.436Z,101736.16
2022-12-31T07:59:47.323Z,101733.27
2022-12-31T08:00:54.320Z,101730.48
2022-12-31T08:02:29.987Z,101738.16
2022-12-31T08:03:51.937Z,101735.98
2022-12-31T08:05:24.241Z,101741.92
2022-12-31T08:06:39.832Z,101741.44
2022-12-31T08:08:03.270Z,101736.02
2022-12-31T08:09:21.961Z,101736.02
2022-12-31T08:10:37.692Z,101732.16
2022-12-31T08:11:56.400Z,101732.16
2022-12-31T08:13:03.242Z,101735.23
2022-12-31T08:14:09.842Z,101735.30
2022-12-31T08:15:15.043Z,101735.30
2022-12-31T08:16:18.549Z,101735.82
2022-12-31T08:17:22.020Z,101742.61
2022-12-31T08:18:25.359Z,101738.75
2022-12-31T08:19:31.103Z,101736.70
2022-12-31T08:20:46.962Z,101748.39
2022-12-31T08:23:21.995Z,101738.32
2022-12-31T08:24:43.772Z,101739.75
2022-12-31T08:26:14.778Z,101741.61
2022-12-31T08:27:25.367Z,101740.09
2022-12-31T08:28:43.969Z,101742.95
2022-12-31T08:29:53.513Z,101742.24
2022-12-31T08:31:12.459Z,101744.28
2022-12-31T08:32:28.282Z,101740.72
2022-12-31T08:33:44.119Z,101739.87
2022-12-31T08:35:13.417Z,101741.58
2022-12-31T08:36:23.541Z,101734.81
2022-12-31T08:37:30.310Z,101734.81
2022-12-31T08:38:49.162Z,101735.48
2022-12-31T08:40:25.803Z,101744.47
2022-12-31T08:41:40.690Z,101738.20
2022-12-31T08:42:46.778Z,101742.46
2022-12-31T08:44:19.036Z,101737.74
2022-12-31T08:46:59.003Z,101734.94
2022-12-31T08:48:26.154Z,101745.05
2022-12-31T08:49:32.498Z,101753.03
2022-12-31T08:50:35.827Z,101745.90
2022-12-31T08:51:39.380Z,101742.52
2022-12-31T08:52:42.802Z,101734.55
2022-12-31T08:53:47.691Z,101743.68
2022-12-31T08:54:51.481Z,101730.28
2022-12-31T08:56:01.001Z,101741.97
2022-12-31T08:57:07.819Z,101744.69
2022-12-31T08:58:49.538Z,101745.69
2022-12-31T09:00:05.325Z,101742.31
2022-12-31T09:01:09.310Z,101747.17
2022-12-31T09:02:44.685Z,101734.97
2022-12-31T09:03:57.421Z,101739.53
2022-12-31T09:05:13.179Z,101728.03
2022-12-31T09:08:11.318Z,101730.92
2022-12-31T09:09:26.763Z,101734.75
2022-12-31T09:10:33.336Z,101741.17
2022-12-31T09:11:54.338Z,101732.23
2022-12-31T09:13:13.800Z,101734.23
2022-12-31T09:14:26.520Z,101737.09
2022-12-31T09:15:39.169Z,101740.28
2022-12-31T09:16:51.568Z,101739.91
2022-12-31T09:17:55.935Z,101741.39
2022-12-31T09:18:59.192Z,101744.73
2022-12-31T09:20:02.973Z,101745.91
2022-12-31T09:21:08.302Z,101742.35
2022-12-31T09:22:11.782Z,101746.06
2022-12-31T09:23:15.348Z,101738.09
2022-12-31T09:24:18.824Z,101741.65
2022-12-31T09:25:23.328Z,101746.21
2022-12-31T09:26:39.099Z,101735.38
2022-12-31T09:30:03.481Z,101740.39
2022-12-31T09:31:12.804Z,101736.94
2022-12-31T09:32:22.093Z,101746.73
2022-12-31T09:33:40.757Z,101740.31
2022-12-31T09:34:56.102Z,101731.89
2022-12-31T09:36:02.795Z,101741.39
2022-12-31T09:38:26.015Z,101736.02
2022-12-31T09:39:43.265Z,101736.02
2022-12-31T09:41:07.986Z,101741.28
2022-12-31T09:42:20.797Z,101730.60
2022-12-31T09:43:39.642Z,101727.00
2022-12-31T09:45:19.467Z,101727.00
2022-12-31T09:46:47.008Z,101726.48
2022-12-31T09:48:13.103Z,101730.19
2022-12-31T09:49:42.516Z,101725.63
2022-12-31T09:51:01.316Z,101730.04
2022-12-31T09:52:33.663Z,101721.06
2022-12-31T09:55:25.609Z,101733.64
2022-12-31T09:57:05.548Z,101737.09
2022-12-31T09:58:42.253Z,101722.62
2022-12-31T09:59:55.087Z,101732.06
2022-12-31T10:01:18.329Z,101732.55
2022-12-31T10:02:59.061Z,101727.46
2022-12-31T10:04:26.843Z,101730.31
2022-12-31T10:05:39.417Z,101722.45
2022-12-31T10:07:02.601Z,101727.20
2022-12-31T10:08:18.452Z,101725.48
2022-12-31T10:09:34.096Z,101723.93
2022-12-31T10:10:47.486Z,101725.97
2022-12-31T10:14:00.379Z,101731.84
2022-12-31T10:15:22.095Z,101727.48
2022-12-31T10:16:40.553Z,101728.48
2022-12-31T10:18:02.378Z,101736.94
2022-12-31T10:19:15.215Z,101736.88
2022-12-31T10:20:45.472Z,101736.88
2022-12-31T10:22:24.151Z,101738.87
2022-12-31T10:23:47.420Z,101732.76
2022-12-31T10:25:16.552Z,101732.76
2022-12-31T10:27:43.451Z,101730.61
2022-12-31T10:29:07.869Z,101734.55
2022-12-31T10:30:19.735Z,101732.84
2022-12-31T10:31:41.505Z,101738.39
2022-12-31T10:32:51.343Z,101738.39
2022-12-31T10:34:16.119Z,101735.02
2022-12-31T10:35:43.474Z,101737.02
2022-12-31T10:37:05.128Z,101737.02
2022-12-31T10:38:24.013Z,101739.86
2022-12-31T10:39:36.846Z,101739.86
2022-12-31T10:41:13.984Z,101742.42
2022-12-31T10:42:46.892Z,101736.86
2022-12-31T10:44:25.327Z,101747.83
2022-12-31T10:45:37.975Z,101748.15
2022-12-31T10:48:16.506Z,101756.66
2022-12-31T10:49:32.319Z,101759.58
2022-12-31T10:50:55.629Z,101763.28
2022-12-31T10:52:05.471Z,101752.75
2022-12-31T10:53:18.190Z,101756.48
2022-12-31T10:54:31.022Z,101758.48
2022-12-31T10:56:09.548Z,101747.80
2022-12-31T10:57:32.940Z,101757.77
2022-12-31T10:59:05.172Z,101761.33
2022-12-31T11:00:15.866Z,101764.17
2022-12-31T11:03:33.481Z,101762.17
2022-12-31T11:05:07.243Z,101771.67
2022-12-31T11:06:30.943Z,101768.57
2022-12-31T11:07:40.262Z,101768.00
2022-12-31T11:08:52.803Z,101772.55
2022-12-31T11:10:25.180Z,101770.02
2022-12-31T11:12:03.564Z,101767.31
2022-12-31T11:13:37.458Z,101773.72
2022-12-31T11:16:12.762Z,101778.75
2022-12-31T11:19:23.192Z,101772.92
2022-12-31T11:20:29.928Z,101780.91
2022-12-31T11:21:51.672Z,101781.03
2022-12-31T11:23:04.551Z,101781.03
2022-12-31T11:24:26.464Z,101791.53
2022-12-31T11:25:33.104Z,101789.53
2022-12-31T11:26:58.049Z,101786.83
2022-12-31T11:28:04.809Z,101787.83
2022-12-31T11:29:26.269Z,101782.56
2022-12-31T11:30:49.863Z,101785.27
2022-12-31T11:32:08.825Z,101784.12
2022-12-31T11:33:27.430Z,101782.10
2022-12-31T11:34:58.183Z,101790.78
2022-12-31T11:36:26.273Z,101787.05
2022-12-31T11:37:39.154Z,101781.81
2022-12-31T11:38:45.887Z,101788.94
2022-12-31T11:40:01.216Z,101795.34
2022-12-31T11:41:23.123Z,101788.08
2022-12-31T11:42:50.678Z,101791.64
2022-12-31T11:44:11.865Z,101798.05
2022-12-31T11:45:25.497Z,101793.77
2022-12-31T11:46:48.596Z,101791.39
2022-12-31T11:48:30.124Z,101800.49
2022-12-31T11:49:41.599Z,101796.94
2022-12-31T11:50:51.269Z,101806.05
2022-12-31T11:52:21.845Z,101797.39
2022-12-31T11:53:37.586Z,101795.83
2022-12-31T11:55:00.993Z,101792.44
2022-12-31T11:56:27.516Z,101804.25
2022-12-31T11:57:37.112Z,101803.25
2022-12-31T11:58:43.713Z,101796.00
2022-12-31T11:59:47.062Z,101810.38
2022-12-31T12:00:56.754Z,101797.84
2022-12-31T12:02:30.605Z,101805.96
2022-12-31T12:04:48.659Z,101803.20
2022-12-31T12:05:51.859Z,101805.25
2022-12-31T12:06:55.175Z,101807.95
2022-12-31T12:07:58.429Z,101806.24
2022-12-31T12:09:08.202Z,101828.72
2022-12-31T12:10:36.541Z,101825.17
2022-12-31T12:11:40.102Z,101823.45
2022-12-31T12:12:43.385Z,101831.88
2022-12-31T12:13:46.952Z,101827.61
2022-12-31T12:14:53.673Z,101825.94
2022-12-31T12:16:06.595Z,101829.77
2022-12-31T12:17:19.227Z,101831.48
2022-12-31T12:19:51.063Z,101823.45
2022-12-31T12:21:12.475Z,101830.94
2022-12-31T12:24:00.894Z,101837.42
2022-12-31T12:25:07.719Z,101838.78
2022-12-31T12:26:37.921Z,101830.81
2022-12-31T12:27:41.027Z,101830.81
2022-12-31T12:28:45.889Z,101837.20
2022-12-31T12:29:49.104Z,101834.36
2022-12-31T12:31:04.017Z,101831.52
2022-12-31T12:32:16.831Z,101834.23
2022-12-31T12:33:20.605Z,101831.52
2022-12-31T12:34:27.084Z,101834.23
2022-12-31T12:35:35.495Z,101834.05
2022-12-31T12:36:42.218Z,101834.05
2022-12-31T12:37:45.408Z,101842.02
2022-12-31T12:38:48.615Z,101837.47
2022-12-31T12:40:01.536Z,101840.89
2022-12-31T12:41:07.139Z,101842.73
2022-12-31T12:42:13.871Z,101836.62
2022-12-31T12:43:29.271Z,101845.58
2022-12-31T12:44:34.661Z,101843.02
2022-12-31T12:45:51.813Z,101847.30
2022-12-31T12:46:53.525Z,101841.44
2022-12-31T12:48:02.397Z,101841.44
2022-12-31T12:49:05.677Z,101843.01
2022-12-31T12:50:21.039Z,101846.39
2022-12-31T12:51:36.913Z,101846.25
2022-12-31T12:52:59.410Z,101847.25
2022-12-31T12:54:19.099Z,101848.41
2022-12-31T12:55:28.989Z,101841.44
2022-12-31T12:56:47.442Z,101841.30
2022-12-31T12:58:00.147Z,101837.42
2022-12-31T12:59:21.782Z,101841.84
2022-12-31T13:00:37.574Z,101842.38
2022-12-31T13:02:08.513Z,101847.51
2022-12-31T13:03:17.013Z,101851.92
2022-12-31T13:04:34.301Z,101858.33
2022-12-31T13:05:53.213Z,101859.31
2022-12-31T13:07:08.735Z,101866.44
2022-12-31T13:08:27.528Z,101857.16
2022-12-31T13:09:40.002Z,101862.28
2022-12-31T13:10:52.816Z,101860.27
2022-12-31T13:14:46.130Z,101869.95
2022-12-31T13:16:01.254Z,101861.83
2022-12-31T13:17:15.033Z,101869.23
2022-12-31T13:18:24.269Z,101865.67
2022-12-31T13:19:50.434Z,101867.55
2022-12-31T13:21:07.687Z,101870.94
2022-12-31T13:22:19.320Z,101869.95
2022-12-31T13:25:25.631Z,101868.23
2022-12-31T13:26:48.235Z,101872.96
2022-12-31T13:27:56.511Z,101873.95
2022-12-31T13:29:08.741Z,101878.51
2022-12-31T13:30:27.077Z,101876.66
2022-12-31T13:31:37.086Z,101874.95
2022-12-31T13:33:01.282Z,101875.80
2022-12-31T13:34:22.878Z,101881.07
2022-12-31T13:35:32.906Z,101870.26
2022-12-31T13:36:39.640Z,101873.64
2022-12-31T13:37:44.580Z,101869.95
2022-12-31T13:38:55.110Z,101874.22
2022-12-31T13:40:22.967Z,101869.80
2022-12-31T13:41:38.586Z,101871.80
2022-12-31T13:42:46.329Z,101879.19
2022-12-31T13:44:20.729Z,101882.20
2022-12-31T13:45:29.390Z,101878.95
2022-12-31T13:48:15.507Z,101881.53
2022-12-31T13:49:24.169Z,101887.25
2022-12-31T13:50:48.451Z,101886.39
2022-12-31T13:52:02.623Z,101883.69
2022-12-31T13:53:29.141Z,101890.50
2022-12-31T13:54:56.539Z,101889.50
2022-12-31T13:56:05.378Z,101897.48
2022-12-31T13:57:19.366Z,101893.52
2022-12-31T14:00:03.311Z,101901.76
2022-12-31T14:01:33.411Z,101905.45
2022-12-31T14:02:57.879Z,101903.75